SWA2323 KLAS-KSAN
Flight info
| Callsign | SWA2323 |
|---|---|
| Flight time | 0h 46m |
| Altitude | 30000 |
| Route | RADYR2 LVELL LUCKI1 |
| Aircraft | B38M/M-SDE1FGHILORVWXY/HB1 |
Departure
| Time | 2026-05-04 02:06 |
|---|---|
| Airport | Harry Reid International Airport (KLAS) |
Arrival
| Time | 2026-05-04 02:52 |
|---|---|
| Airport | San Diego International Airport (KSAN) |
| Time | Latitude | Longitude | Altitude | Speed | Heading |
|---|---|---|---|---|---|
| 2026-05-04 01:40 | 36.08025 | -115.14730 | 2100 ft | 0 kts | 59° |
| 2026-05-04 01:51 | 36.08022 | -115.14736 | 2100 ft | 2 kts | 59° |
| 2026-05-04 01:51 | 36.08013 | -115.14755 | 2100 ft | 2 kts | 59° |
| 2026-05-04 01:52 | 36.08001 | -115.14771 | 2100 ft | 3 kts | 28° |
| 2026-05-04 01:52 | 36.07984 | -115.14777 | 2100 ft | 3 kts | 354° |
| 2026-05-04 01:52 | 36.07967 | -115.14771 | 2100 ft | 2 kts | 335° |
| 2026-05-04 01:52 | 36.07961 | -115.14768 | 2100 ft | 0 kts | 335° |
| 2026-05-04 01:56 | 36.07966 | -115.14771 | 2100 ft | 2 kts | 335° |
| 2026-05-04 01:56 | 36.07981 | -115.14780 | 2100 ft | 4 kts | 335° |
| 2026-05-04 01:56 | 36.08010 | -115.14797 | 2100 ft | 6 kts | 334° |
| 2026-05-04 01:57 | 36.08047 | -115.14827 | 2100 ft | 7 kts | 319° |
| 2026-05-04 01:57 | 36.08077 | -115.14881 | 2099 ft | 9 kts | 295° |
| 2026-05-04 01:57 | 36.08098 | -115.14958 | 2099 ft | 10 kts | 277° |
| 2026-05-04 01:57 | 36.08101 | -115.15049 | 2099 ft | 11 kts | 271° |
| 2026-05-04 01:58 | 36.08094 | -115.15152 | 2100 ft | 13 kts | 252° |
| 2026-05-04 01:58 | 36.08097 | -115.15251 | 2100 ft | 12 kts | 282° |
| 2026-05-04 01:58 | 36.08117 | -115.15351 | 2100 ft | 12 kts | 284° |
| 2026-05-04 01:58 | 36.08151 | -115.15449 | 2100 ft | 12 kts | 293° |
| 2026-05-04 01:59 | 36.08204 | -115.15524 | 2101 ft | 12 kts | 335° |
| 2026-05-04 01:59 | 36.08280 | -115.15566 | 2102 ft | 12 kts | 336° |
| 2026-05-04 01:59 | 36.08355 | -115.15608 | 2102 ft | 12 kts | 335° |
| 2026-05-04 01:59 | 36.08430 | -115.15651 | 2103 ft | 12 kts | 333° |
| 2026-05-04 02:00 | 36.08502 | -115.15695 | 2105 ft | 11 kts | 333° |
| 2026-05-04 02:00 | 36.08571 | -115.15738 | 2106 ft | 11 kts | 334° |
| 2026-05-04 02:00 | 36.08637 | -115.15777 | 2108 ft | 10 kts | 335° |
| 2026-05-04 02:00 | 36.08701 | -115.15793 | 2109 ft | 9 kts | 9° |
| 2026-05-04 02:01 | 36.08770 | -115.15759 | 2107 ft | 12 kts | 25° |
| 2026-05-04 02:01 | 36.08849 | -115.15714 | 2106 ft | 14 kts | 25° |
| 2026-05-04 02:01 | 36.08942 | -115.15660 | 2104 ft | 16 kts | 25° |
| 2026-05-04 02:01 | 36.09042 | -115.15601 | 2102 ft | 16 kts | 25° |
| 2026-05-04 02:02 | 36.09138 | -115.15545 | 2101 ft | 16 kts | 24° |
| 2026-05-04 02:02 | 36.09242 | -115.15488 | 2101 ft | 17 kts | 24° |
| 2026-05-04 02:02 | 36.09354 | -115.15425 | 2100 ft | 18 kts | 26° |
| 2026-05-04 02:02 | 36.09470 | -115.15356 | 2100 ft | 19 kts | 25° |
| 2026-05-04 02:03 | 36.09592 | -115.15285 | 2099 ft | 20 kts | 25° |
| 2026-05-04 02:03 | 36.09710 | -115.15218 | 2099 ft | 13 kts | 23° |
| 2026-05-04 02:03 | 36.09790 | -115.15236 | 2098 ft | 12 kts | 305° |
| 2026-05-04 02:03 | 36.09807 | -115.15328 | 2096 ft | 12 kts | 262° |
| 2026-05-04 02:04 | 36.09765 | -115.15407 | 2097 ft | 11 kts | 206° |
| 2026-05-04 02:04 | 36.09700 | -115.15444 | 2098 ft | 10 kts | 205° |
| 2026-05-04 02:04 | 36.09655 | -115.15470 | 2098 ft | 0 kts | 205° |
| 2026-05-04 02:05 | 36.09653 | -115.15471 | 2098 ft | 3 kts | 205° |
| 2026-05-04 02:05 | 36.09425 | -115.15602 | 2102 ft | 73 kts | 205° |
| 2026-05-04 02:05 | 36.08751 | -115.15989 | 2120 ft | 137 kts | 205° |
| 2026-05-04 02:05 | 36.07735 | -115.16586 | 2248 ft | 181 kts | 205° |
| 2026-05-04 02:06 | 36.06504 | -115.17224 | 2733 ft | 202 kts | 202° |
| 2026-05-04 02:06 | 36.05285 | -115.17954 | 3931 ft | 191 kts | 206° |
| 2026-05-04 02:06 | 36.04040 | -115.18719 | 4560 ft | 210 kts | 206° |
| 2026-05-04 02:06 | 36.02668 | -115.19552 | 5120 ft | 229 kts | 205° |
| 2026-05-04 02:07 | 36.01182 | -115.20446 | 5809 ft | 245 kts | 206° |
| 2026-05-04 02:07 | 35.99577 | -115.21259 | 6592 ft | 253 kts | 200° |
| 2026-05-04 02:07 | 35.97892 | -115.22006 | 7425 ft | 259 kts | 200° |
| 2026-05-04 02:07 | 35.96188 | -115.22770 | 8329 ft | 263 kts | 200° |
| 2026-05-04 02:08 | 35.94454 | -115.23555 | 9224 ft | 267 kts | 200° |
| 2026-05-04 02:08 | 35.92702 | -115.24352 | 10096 ft | 270 kts | 201° |
| 2026-05-04 02:08 | 35.90892 | -115.25175 | 10666 ft | 286 kts | 200° |
| 2026-05-04 02:08 | 35.88980 | -115.26045 | 11035 ft | 305 kts | 200° |
| 2026-05-04 02:09 | 35.86942 | -115.26973 | 11526 ft | 319 kts | 200° |
| 2026-05-04 02:09 | 35.84845 | -115.27928 | 12249 ft | 324 kts | 200° |
| 2026-05-04 02:09 | 35.82713 | -115.28899 | 12957 ft | 329 kts | 200° |
| 2026-05-04 02:09 | 35.80557 | -115.29878 | 13751 ft | 331 kts | 200° |
| 2026-05-04 02:10 | 35.78374 | -115.30871 | 14356 ft | 337 kts | 200° |
| 2026-05-04 02:10 | 35.76176 | -115.31870 | 15108 ft | 337 kts | 201° |
| 2026-05-04 02:10 | 35.73953 | -115.32879 | 15687 ft | 344 kts | 201° |
| 2026-05-04 02:10 | 35.71703 | -115.33900 | 16404 ft | 345 kts | 201° |
| 2026-05-04 02:11 | 35.69438 | -115.34928 | 17000 ft | 350 kts | 201° |
| 2026-05-04 02:11 | 35.67146 | -115.35966 | 17643 ft | 352 kts | 201° |
| 2026-05-04 02:11 | 35.64833 | -115.37014 | 18214 ft | 356 kts | 202° |
| 2026-05-04 02:11 | 35.62497 | -115.38067 | 18752 ft | 359 kts | 201° |
| 2026-05-04 02:12 | 35.60030 | -115.38585 | 19354 ft | 365 kts | 184° |
| 2026-05-04 02:12 | 35.57480 | -115.38458 | 19912 ft | 368 kts | 183° |
| 2026-05-04 02:12 | 35.54913 | -115.38319 | 20430 ft | 371 kts | 183° |
| 2026-05-04 02:12 | 35.52332 | -115.38161 | 20974 ft | 373 kts | 184° |
| 2026-05-04 02:13 | 35.49731 | -115.37989 | 21485 ft | 375 kts | 184° |
| 2026-05-04 02:13 | 35.47114 | -115.37808 | 22009 ft | 377 kts | 185° |
| 2026-05-04 02:13 | 35.44483 | -115.37623 | 22521 ft | 379 kts | 185° |
| 2026-05-04 02:13 | 35.41842 | -115.37436 | 23025 ft | 381 kts | 186° |
| 2026-05-04 02:14 | 35.39183 | -115.37247 | 23471 ft | 384 kts | 186° |
| 2026-05-04 02:14 | 35.36514 | -115.37057 | 23833 ft | 387 kts | 186° |
| 2026-05-04 02:14 | 35.33813 | -115.36865 | 24202 ft | 389 kts | 186° |
| 2026-05-04 02:14 | 35.31100 | -115.36673 | 24563 ft | 393 kts | 186° |
| 2026-05-04 02:15 | 35.28358 | -115.36479 | 24924 ft | 396 kts | 186° |
| 2026-05-04 02:15 | 35.25606 | -115.36285 | 25305 ft | 398 kts | 186° |
| 2026-05-04 02:15 | 35.22825 | -115.36089 | 25648 ft | 401 kts | 186° |
| 2026-05-04 02:15 | 35.20027 | -115.35891 | 25995 ft | 404 kts | 186° |
| 2026-05-04 02:16 | 35.17250 | -115.35695 | 26310 ft | 406 kts | 186° |
| 2026-05-04 02:16 | 35.14412 | -115.35495 | 26625 ft | 410 kts | 186° |
| 2026-05-04 02:16 | 35.11563 | -115.35296 | 26929 ft | 412 kts | 186° |
| 2026-05-04 02:16 | 35.08693 | -115.35096 | 27276 ft | 414 kts | 186° |
| 2026-05-04 02:17 | 35.05810 | -115.34895 | 27596 ft | 417 kts | 186° |
| 2026-05-04 02:17 | 35.02894 | -115.34692 | 27900 ft | 420 kts | 186° |
| 2026-05-04 02:17 | 34.99969 | -115.34488 | 28225 ft | 423 kts | 186° |
| 2026-05-04 02:17 | 34.97025 | -115.34283 | 28536 ft | 426 kts | 186° |
| 2026-05-04 02:18 | 34.94058 | -115.34077 | 28818 ft | 428 kts | 186° |
| 2026-05-04 02:18 | 34.91073 | -115.33870 | 29118 ft | 431 kts | 186° |
| 2026-05-04 02:18 | 34.88076 | -115.33662 | 29443 ft | 433 kts | 187° |
| 2026-05-04 02:18 | 34.85073 | -115.33454 | 29748 ft | 434 kts | 187° |
| 2026-05-04 02:19 | 34.79085 | -115.33210 | 29742 ft | 418 kts | 197° |
| 2026-05-04 02:19 | 34.76340 | -115.34057 | 29761 ft | 402 kts | 208° |
| 2026-05-04 02:19 | 34.73675 | -115.35139 | 29728 ft | 404 kts | 207° |
| 2026-05-04 02:20 | 34.68369 | -115.37375 | 29740 ft | 402 kts | 208° |
| 2026-05-04 02:20 | 34.63126 | -115.39652 | 29741 ft | 400 kts | 209° |
| 2026-05-04 02:21 | 34.57895 | -115.41936 | 29741 ft | 400 kts | 209° |
| 2026-05-04 02:21 | 34.52691 | -115.44207 | 29731 ft | 400 kts | 209° |
| 2026-05-04 02:22 | 34.47449 | -115.46491 | 29732 ft | 400 kts | 209° |
| 2026-05-04 02:22 | 34.42229 | -115.48764 | 29737 ft | 397 kts | 209° |
| 2026-05-04 02:23 | 34.37049 | -115.51015 | 29734 ft | 395 kts | 209° |
| 2026-05-04 02:23 | 34.31958 | -115.53429 | 29730 ft | 383 kts | 219° |
| 2026-05-04 02:24 | 34.27415 | -115.56789 | 29746 ft | 383 kts | 219° |
| 2026-05-04 02:24 | 34.22860 | -115.60138 | 29751 ft | 383 kts | 219° |
| 2026-05-04 02:25 | 34.17982 | -115.62913 | 29712 ft | 393 kts | 211° |
| 2026-05-04 02:25 | 34.12902 | -115.65326 | 29776 ft | 391 kts | 211° |
| 2026-05-04 02:26 | 34.07871 | -115.67702 | 29773 ft | 390 kts | 211° |
| 2026-05-04 02:26 | 34.02732 | -115.70126 | 29781 ft | 403 kts | 211° |
| 2026-05-04 02:27 | 33.97428 | -115.72623 | 29764 ft | 413 kts | 210° |
| 2026-05-04 02:27 | 33.92083 | -115.75152 | 29713 ft | 412 kts | 211° |
| 2026-05-04 02:28 | 33.86755 | -115.77767 | 29774 ft | 414 kts | 212° |
| 2026-05-04 02:28 | 33.81420 | -115.80374 | 29763 ft | 413 kts | 212° |
| 2026-05-04 02:29 | 33.76124 | -115.82927 | 29024 ft | 407 kts | 211° |
| 2026-05-04 02:29 | 33.73546 | -115.84125 | 29119 ft | 391 kts | 212° |
| 2026-05-04 02:29 | 33.70994 | -115.85328 | 28807 ft | 401 kts | 211° |
| 2026-05-04 02:30 | 33.68356 | -115.86568 | 28348 ft | 411 kts | 211° |
| 2026-05-04 02:30 | 33.65678 | -115.87820 | 27895 ft | 414 kts | 211° |
| 2026-05-04 02:30 | 33.62987 | -115.89081 | 27396 ft | 416 kts | 211° |
| 2026-05-04 02:30 | 33.60280 | -115.90347 | 26947 ft | 418 kts | 210° |
| 2026-05-04 02:31 | 33.57563 | -115.91618 | 26476 ft | 420 kts | 210° |
| 2026-05-04 02:31 | 33.54836 | -115.92893 | 25999 ft | 422 kts | 210° |
| 2026-05-04 02:31 | 33.52215 | -115.94398 | 25336 ft | 410 kts | 222° |
| 2026-05-04 02:31 | 33.50231 | -115.96763 | 24967 ft | 399 kts | 238° |
| 2026-05-04 02:32 | 33.48637 | -115.99502 | 24632 ft | 402 kts | 237° |
| 2026-05-04 02:32 | 33.47020 | -116.02231 | 24191 ft | 402 kts | 238° |
| 2026-05-04 02:32 | 33.45436 | -116.04934 | 23730 ft | 401 kts | 238° |
| 2026-05-04 02:32 | 33.43819 | -116.07708 | 23243 ft | 401 kts | 237° |
| 2026-05-04 02:33 | 33.42228 | -116.10442 | 22683 ft | 399 kts | 237° |
| 2026-05-04 02:33 | 33.40665 | -116.13130 | 22200 ft | 397 kts | 237° |
| 2026-05-04 02:33 | 33.39073 | -116.15865 | 21742 ft | 395 kts | 237° |
| 2026-05-04 02:33 | 33.37510 | -116.18550 | 21276 ft | 389 kts | 237° |
| 2026-05-04 02:34 | 33.35978 | -116.21179 | 20828 ft | 382 kts | 237° |
| 2026-05-04 02:34 | 33.34469 | -116.23718 | 20361 ft | 377 kts | 233° |
| 2026-05-04 02:34 | 33.32488 | -116.25773 | 19803 ft | 383 kts | 214° |
| 2026-05-04 02:34 | 33.30094 | -116.27156 | 19391 ft | 379 kts | 211° |
| 2026-05-04 02:35 | 33.27745 | -116.28527 | 18983 ft | 373 kts | 211° |
| 2026-05-04 02:35 | 33.25422 | -116.29887 | 18551 ft | 370 kts | 211° |
| 2026-05-04 02:35 | 33.23125 | -116.31233 | 18106 ft | 367 kts | 210° |
| 2026-05-04 02:35 | 33.20843 | -116.32569 | 17607 ft | 364 kts | 210° |
| 2026-05-04 02:36 | 33.18587 | -116.33889 | 17156 ft | 360 kts | 210° |
| 2026-05-04 02:36 | 33.16353 | -116.35195 | 16726 ft | 356 kts | 210° |
| 2026-05-04 02:36 | 33.14147 | -116.36485 | 16318 ft | 351 kts | 210° |
| 2026-05-04 02:36 | 33.11959 | -116.37764 | 15893 ft | 349 kts | 210° |
| 2026-05-04 02:37 | 33.09788 | -116.39032 | 15507 ft | 346 kts | 210° |
| 2026-05-04 02:37 | 33.07630 | -116.40291 | 15096 ft | 344 kts | 210° |
| 2026-05-04 02:37 | 33.05484 | -116.41545 | 14681 ft | 342 kts | 210° |
| 2026-05-04 02:37 | 33.03348 | -116.42789 | 14244 ft | 341 kts | 209° |
| 2026-05-04 02:38 | 33.01228 | -116.44027 | 13865 ft | 338 kts | 210° |
| 2026-05-04 02:38 | 32.99331 | -116.45624 | 13364 ft | 334 kts | 223° |
| 2026-05-04 02:38 | 32.97573 | -116.47426 | 12926 ft | 331 kts | 222° |
| 2026-05-04 02:38 | 32.95849 | -116.49169 | 12551 ft | 327 kts | 222° |
| 2026-05-04 02:39 | 32.94125 | -116.50912 | 12210 ft | 323 kts | 222° |
| 2026-05-04 02:39 | 32.92430 | -116.52622 | 11819 ft | 315 kts | 222° |
| 2026-05-04 02:39 | 32.90791 | -116.54275 | 11445 ft | 303 kts | 222° |
| 2026-05-04 02:39 | 32.89218 | -116.55860 | 11091 ft | 291 kts | 222° |
| 2026-05-04 02:40 | 32.87704 | -116.57384 | 10778 ft | 280 kts | 222° |
| 2026-05-04 02:40 | 32.86239 | -116.58860 | 10447 ft | 271 kts | 222° |
| 2026-05-04 02:40 | 32.84830 | -116.60278 | 10117 ft | 256 kts | 222° |
| 2026-05-04 02:40 | 32.83527 | -116.61590 | 9778 ft | 236 kts | 222° |
| 2026-05-04 02:41 | 32.82312 | -116.62815 | 9461 ft | 224 kts | 222° |
| 2026-05-04 02:41 | 32.81144 | -116.63990 | 9172 ft | 215 kts | 222° |
| 2026-05-04 02:41 | 32.80017 | -116.65125 | 8941 ft | 213 kts | 222° |
| 2026-05-04 02:41 | 32.78878 | -116.66271 | 8718 ft | 215 kts | 222° |
| 2026-05-04 02:42 | 32.77751 | -116.67434 | 8481 ft | 215 kts | 228° |
| 2026-05-04 02:42 | 32.76917 | -116.68899 | 8198 ft | 214 kts | 239° |
| 2026-05-04 02:42 | 32.76138 | -116.70405 | 7892 ft | 212 kts | 230° |
| 2026-05-04 02:42 | 32.74932 | -116.71370 | 7551 ft | 214 kts | 199° |
| 2026-05-04 02:43 | 32.73442 | -116.71685 | 7203 ft | 222 kts | 191° |
| 2026-05-04 02:43 | 32.71892 | -116.71903 | 6801 ft | 227 kts | 191° |
| 2026-05-04 02:43 | 32.70315 | -116.72135 | 6403 ft | 228 kts | 191° |
| 2026-05-04 02:43 | 32.68747 | -116.72364 | 5937 ft | 227 kts | 191° |
| 2026-05-04 02:44 | 32.67165 | -116.72599 | 5538 ft | 231 kts | 191° |
| 2026-05-04 02:44 | 32.65544 | -116.72838 | 5126 ft | 236 kts | 191° |
| 2026-05-04 02:44 | 32.63950 | -116.73082 | 4996 ft | 230 kts | 191° |
| 2026-05-04 02:44 | 32.62508 | -116.73670 | 4984 ft | 215 kts | 220° |
| 2026-05-04 02:45 | 32.61634 | -116.75032 | 4962 ft | 208 kts | 253° |
| 2026-05-04 02:45 | 32.61559 | -116.76722 | 4988 ft | 208 kts | 278° |
| 2026-05-04 02:45 | 32.61858 | -116.78416 | 4997 ft | 210 kts | 281° |
| 2026-05-04 02:45 | 32.62191 | -116.80114 | 5001 ft | 217 kts | 281° |
| 2026-05-04 02:46 | 32.62543 | -116.81900 | 4976 ft | 226 kts | 281° |
| 2026-05-04 02:46 | 32.62897 | -116.83736 | 4980 ft | 230 kts | 281° |
| 2026-05-04 02:46 | 32.63315 | -116.85579 | 4978 ft | 232 kts | 288° |
| 2026-05-04 02:46 | 32.63928 | -116.87367 | 4988 ft | 233 kts | 291° |
| 2026-05-04 02:47 | 32.64552 | -116.89136 | 4956 ft | 228 kts | 291° |
| 2026-05-04 02:47 | 32.65145 | -116.90818 | 4986 ft | 218 kts | 291° |
| 2026-05-04 02:47 | 32.65729 | -116.92465 | 4985 ft | 215 kts | 291° |
| 2026-05-04 02:47 | 32.66308 | -116.94107 | 4905 ft | 217 kts | 291° |
| 2026-05-04 02:48 | 32.66890 | -116.95772 | 4544 ft | 220 kts | 291° |
| 2026-05-04 02:48 | 32.67476 | -116.97477 | 4147 ft | 225 kts | 291° |
| 2026-05-04 02:48 | 32.68057 | -116.99185 | 3867 ft | 220 kts | 294° |
| 2026-05-04 02:48 | 32.68737 | -117.00725 | 3840 ft | 202 kts | 295° |
| 2026-05-04 02:49 | 32.69255 | -117.02218 | 3794 ft | 195 kts | 288° |
| 2026-05-04 02:49 | 32.69667 | -117.03739 | 3780 ft | 193 kts | 285° |
| 2026-05-04 02:49 | 32.70052 | -117.05267 | 3619 ft | 195 kts | 285° |
| 2026-05-04 02:49 | 32.70396 | -117.06785 | 3150 ft | 185 kts | 283° |
| 2026-05-04 02:50 | 32.70729 | -117.08230 | 2589 ft | 179 kts | 285° |
| 2026-05-04 02:50 | 32.71071 | -117.09604 | 2154 ft | 168 kts | 285° |
| 2026-05-04 02:50 | 32.71288 | -117.10483 | 1881 ft | 161 kts | 284° |
| 2026-05-04 02:50 | 32.71582 | -117.11723 | 1487 ft | 153 kts | 284° |
| 2026-05-04 02:51 | 32.71859 | -117.12914 | 1113 ft | 145 kts | 284° |
| 2026-05-04 02:51 | 32.72146 | -117.14038 | 796 ft | 141 kts | 284° |
| 2026-05-04 02:51 | 32.72452 | -117.15152 | 551 ft | 142 kts | 283° |
| 2026-05-04 02:51 | 32.72719 | -117.16275 | 365 ft | 143 kts | 281° |
| 2026-05-04 02:52 | 32.72978 | -117.17436 | 128 ft | 145 kts | 284° |
| 2026-05-04 02:52 | 32.73241 | -117.18544 | 27 ft | 132 kts | 285° |
| 2026-05-04 02:52 | 32.73368 | -117.19119 | 23 ft | 21 kts | 247° |
| 2026-05-04 02:52 | 32.73340 | -117.19155 | 24 ft | 0 kts | 214° |
| 2026-05-04 02:53 | 32.73336 | -117.19158 | 24 ft | 0 kts | 214° |
| 2026-05-04 02:53 | 32.73336 | -117.19159 | 24 ft | 0 kts | 214° |
| 2026-05-04 02:53 | 32.73328 | -117.19165 | 25 ft | 2 kts | 214° |
| 2026-05-04 02:54 | 32.73317 | -117.19182 | 25 ft | 3 kts | 249° |
| 2026-05-04 02:54 | 32.73316 | -117.19217 | 22 ft | 5 kts | 265° |
| 2026-05-04 02:54 | 32.73294 | -117.19246 | 26 ft | 5 kts | 229° |